Abis Cuxhaven — PBYB — position and weather

sailwx.info

Track history (hours):
 
Tides and Currents Weather Stations Pressure Air Temp Water Temp Dewpoint Dewpoint Depression Visibility Wind Speed Wind Dir Waves Ship Positions

Abis Cuxhaven

Last reported at 2016-Feb-14 16:32 UTC. Time now 2016-Feb-14 17:01 UTC.
Position N 53°07' E 008°43'.

Length 114 m; draft 6 m.

Type: Cargo ship. MMSI: 246670000.

Date/timePositionNaut miles runAvg speedWind from/ knotsBaromVisibWave heightAir tempDewpointWater temp
2016-Feb-14 16:32N 53°07' E 008°43'0 0.0
2016-Feb-14 15:32N 53°07' E 008°43'0 0.0
2016-Feb-14 14:32N 53°07' E 008°43'0 0.0
2016-Feb-14 13:33N 53°07' E 008°43'0 0.0
2016-Feb-14 12:32N 53°07' E 008°43'0 0.0
2016-Feb-14 11:32N 53°07' E 008°43'0 0.0
2016-Feb-14 10:32N 53°07' E 008°43'0 0.0
2016-Feb-14 09:32N 53°07' E 008°43'0 0.0
2016-Feb-14 08:32N 53°07' E 008°43'0 0.0
2016-Feb-14 07:33N 53°07' E 008°43'0 0.0
2016-Feb-14 06:32N 53°08' E 008°43'0 0.0
2016-Feb-14 05:32N 53°07' E 008°43'0 0.0
2016-Feb-14 04:32N 53°07' E 008°43'0 0.0
2016-Feb-14 03:32N 53°07' E 008°43'0 0.0
2016-Feb-14 02:32N 53°07' E 008°43'0 0.0
2016-Feb-14 01:32N 53°07' E 008°43'0 0.0
2016-Feb-14 00:32N 53°07' E 008°43'0 0.0
2016-Feb-13 23:33N 53°07' E 008°43'0 0.0
2016-Feb-13 22:32N 53°07' E 008°43'0 0.0
2016-Feb-13 21:32N 53°07' E 008°43'0 0.0
2016-Feb-13 20:32N 53°07' E 008°43'0 0.0
2016-Feb-13 19:33N 53°07' E 008°43'0 0.0
2016-Feb-13 18:33N 53°07' E 008°43'0 0.0
2016-Feb-13 17:32N 53°07' E 008°43'0 0.0
2016-Feb-13 16:33N 53°07' E 008°43'0 0.0
2016-Feb-13 15:32N 53°07' E 008°43'0 0.0
2016-Feb-13 14:32N 53°07' E 008°43'0 0.0
2016-Feb-13 13:32N 53°07' E 008°43'0 0.0
2016-Feb-13 12:32N 53°07' E 008°43'0 0.0
2016-Feb-13 11:32N 53°07' E 008°43'0 0.0
2016-Feb-13 10:33N 53°07' E 008°43'0 0.0
2016-Feb-13 09:32N 53°07' E 008°43'0 0.0
2016-Feb-13 08:32N 53°07' E 008°43'0 0.0
2016-Feb-13 07:33N 53°07' E 008°43'0 0.0
2016-Feb-13 06:32N 53°07' E 008°43'0 0.0
2016-Feb-13 05:32N 53°07' E 008°43'0 0.0
2016-Feb-13 04:32N 53°07' E 008°43'0 0.0
2016-Feb-13 03:33N 53°07' E 008°43'0 0.0
2016-Feb-13 02:32N 53°07' E 008°43'0 0.0
2016-Feb-13 01:33N 53°07' E 008°43'0 0.0
2016-Feb-13 00:33N 53°07' E 008°43'0 0.0
2016-Feb-12 23:33N 53°07' E 008°43'0 0.0
2016-Feb-12 22:33N 53°07' E 008°43'0 0.0
2016-Feb-12 21:32N 53°07' E 008°43'0 0.0
2016-Feb-12 20:32N 53°07' E 008°43'0 0.0
2016-Feb-12 19:32N 53°07' E 008°43'0 0.0
2016-Feb-12 18:32N 53°07' E 008°43'0 0.0
2016-Feb-12 17:33N 53°07' E 008°43'0 0.0
2016-Feb-12 16:32N 53°07' E 008°43'0 0.0
2016-Feb-12 15:32N 53°07' E 008°43'0 0.0
2016-Feb-12 14:33N 53°07' E 008°43'0 0.0
2016-Feb-12 13:33N 53°07' E 008°43'0 0.0
2016-Feb-12 12:33N 53°07' E 008°43'0 0.0
2016-Feb-12 11:33N 53°07' E 008°43'0 0.0
2016-Feb-12 10:32N 53°07' E 008°43'0 0.0
2016-Feb-12 09:32N 53°07' E 008°43'0 0.0
2016-Feb-12 08:33N 53°07' E 008°43'0 0.0
2016-Feb-12 07:33N 53°07' E 008°43'0 0.0
2016-Feb-12 06:32N 53°07' E 008°43'0 0.0
2016-Feb-12 05:33N 53°07' E 008°43'0 0.0
2016-Feb-12 04:33N 53°07' E 008°43'0 0.0
2016-Feb-12 03:32N 53°07' E 008°43'0 0.0
2016-Feb-12 02:32N 53°07' E 008°43'0 0.0
2016-Feb-12 01:33N 53°07' E 008°43'0 0.0
2016-Feb-12 00:32N 53°07' E 008°43'0 0.0
2016-Feb-11 23:33N 53°07' E 008°43'0 0.0
2016-Feb-11 22:32N 53°07' E 008°43'0 0.0
2016-Feb-11 21:33N 53°07' E 008°43'0 0.0
2016-Feb-11 20:33N 53°07' E 008°43'0 0.0
2016-Feb-11 19:32N 53°07' E 008°43'0 0.0
2016-Feb-11 18:32N 53°07' E 008°43'0 0.0
2016-Feb-11 17:33N 53°07' E 008°43'0 0.4
2016-Feb-11 16:34N 53°07' E 008°43'6 6.5
2016-Feb-11 15:33N 53°11' E 008°34'8 7.7
2016-Feb-11 14:34N 53°18' E 008°29'9 9.2
2016-Feb-11 13:33N 53°27' E 008°29'5 4.7
2016-Feb-11 12:32N 53°31' E 008°34'0 0.0
2016-Feb-11 11:32N 53°31' E 008°34'0 0.0
2016-Feb-11 10:32N 53°31' E 008°34'2 1.7
2016-Feb-11 09:33N 53°33' E 008°33'9 9.4
2016-Feb-11 08:34N 53°40' E 008°23'9 9.2
2016-Feb-11 07:34N 53°46' E 008°11'8 7.8
2016-Feb-11 06:34N 53°51' E 008°01'8 7.8
2016-Feb-11 05:33N 53°53' E 007°48'9 9.3
2016-Feb-11 04:34N 53°59' E 007°36'9 9.4
2016-Feb-11 03:33N 54°07' E 007°29'9 8.6
2016-Feb-11 02:33N 54°15' E 007°23'8 8.1
2016-Feb-11 01:33N 54°23' E 007°17'8 8.0
2016-Feb-11 00:33N 54°30' E 007°12'8 8.5
2016-Feb-10 23:33N 54°38' E 007°07'237 9.0
2016-Feb-09 21:06N 58°23' E 004°51'5 8.6
2016-Feb-09 20:31N 58°28' E 004°48'9 8.9
2016-Feb-09 19:32N 58°36' E 004°43'10 9.1
2016-Feb-09 18:24N 58°46' E 004°37'  
2016-Feb-05 18:33N 58°47' W 002°38'9 9.5
2016-Feb-05 17:33N 58°43' W 002°54'1211.6
2016-Feb-05 16:33N 58°42' W 003°17'9 9.0
2016-Feb-05 15:33N 58°42' W 003°34'9 8.7
2016-Feb-05 14:33N 58°41' W 003°51'9 8.6
2016-Feb-05 13:33N 58°41' W 004°07'  
Track history (hours):
 
Tides and Currents Weather Stations Pressure Air Temp Water Temp Dewpoint Dewpoint Depression Visibility Wind Speed Wind Dir Waves Ship Positions

Abis Cuxhaven

Last reported at 2016-Feb-14 16:32 UTC. Time now 2016-Feb-14 17:01 UTC.
Position N 53°07' E 008°43'.

Length 114 m; draft 6 m.

Type: Cargo ship. MMSI: 246670000.

Date/timePositionNaut miles runAvg speedWind from/ knotsBaromVisibWave heightAir tempDewpointWater temp
2016-Feb-14 16:32N 53°07' E 008°43'0 0.0
2016-Feb-14 15:32N 53°07' E 008°43'0 0.0
2016-Feb-14 14:32N 53°07' E 008°43'0 0.0
2016-Feb-14 13:33N 53°07' E 008°43'0 0.0
2016-Feb-14 12:32N 53°07' E 008°43'0 0.0
2016-Feb-14 11:32N 53°07' E 008°43'0 0.0
2016-Feb-14 10:32N 53°07' E 008°43'0 0.0
2016-Feb-14 09:32N 53°07' E 008°43'0 0.0
2016-Feb-14 08:32N 53°07' E 008°43'0 0.0
2016-Feb-14 07:33N 53°07' E 008°43'0 0.0
2016-Feb-14 06:32N 53°08' E 008°43'0 0.0
2016-Feb-14 05:32N 53°07' E 008°43'0 0.0
2016-Feb-14 04:32N 53°07' E 008°43'0 0.0
2016-Feb-14 03:32N 53°07' E 008°43'0 0.0
2016-Feb-14 02:32N 53°07' E 008°43'0 0.0
2016-Feb-14 01:32N 53°07' E 008°43'0 0.0
2016-Feb-14 00:32N 53°07' E 008°43'0 0.0
2016-Feb-13 23:33N 53°07' E 008°43'0 0.0
2016-Feb-13 22:32N 53°07' E 008°43'0 0.0
2016-Feb-13 21:32N 53°07' E 008°43'0 0.0
2016-Feb-13 20:32N 53°07' E 008°43'0 0.0
2016-Feb-13 19:33N 53°07' E 008°43'0 0.0
2016-Feb-13 18:33N 53°07' E 008°43'0 0.0
2016-Feb-13 17:32N 53°07' E 008°43'0 0.0
2016-Feb-13 16:33N 53°07' E 008°43'0 0.0
2016-Feb-13 15:32N 53°07' E 008°43'0 0.0
2016-Feb-13 14:32N 53°07' E 008°43'0 0.0
2016-Feb-13 13:32N 53°07' E 008°43'0 0.0
2016-Feb-13 12:32N 53°07' E 008°43'0 0.0
2016-Feb-13 11:32N 53°07' E 008°43'0 0.0
2016-Feb-13 10:33N 53°07' E 008°43'0 0.0
2016-Feb-13 09:32N 53°07' E 008°43'0 0.0
2016-Feb-13 08:32N 53°07' E 008°43'0 0.0
2016-Feb-13 07:33N 53°07' E 008°43'0 0.0
2016-Feb-13 06:32N 53°07' E 008°43'0 0.0
2016-Feb-13 05:32N 53°07' E 008°43'0 0.0
2016-Feb-13 04:32N 53°07' E 008°43'0 0.0
2016-Feb-13 03:33N 53°07' E 008°43'0 0.0
2016-Feb-13 02:32N 53°07' E 008°43'0 0.0
2016-Feb-13 01:33N 53°07' E 008°43'0 0.0
2016-Feb-13 00:33N 53°07' E 008°43'0 0.0
2016-Feb-12 23:33N 53°07' E 008°43'0 0.0
2016-Feb-12 22:33N 53°07' E 008°43'0 0.0
2016-Feb-12 21:32N 53°07' E 008°43'0 0.0
2016-Feb-12 20:32N 53°07' E 008°43'0 0.0
2016-Feb-12 19:32N 53°07' E 008°43'0 0.0
2016-Feb-12 18:32N 53°07' E 008°43'0 0.0
2016-Feb-12 17:33N 53°07' E 008°43'0 0.0
2016-Feb-12 16:32N 53°07' E 008°43'0 0.0
2016-Feb-12 15:32N 53°07' E 008°43'0 0.0
2016-Feb-12 14:33N 53°07' E 008°43'0 0.0
2016-Feb-12 13:33N 53°07' E 008°43'0 0.0
2016-Feb-12 12:33N 53°07' E 008°43'0 0.0
2016-Feb-12 11:33N 53°07' E 008°43'0 0.0
2016-Feb-12 10:32N 53°07' E 008°43'0 0.0
2016-Feb-12 09:32N 53°07' E 008°43'0 0.0
2016-Feb-12 08:33N 53°07' E 008°43'0 0.0
2016-Feb-12 07:33N 53°07' E 008°43'0 0.0
2016-Feb-12 06:32N 53°07' E 008°43'0 0.0
2016-Feb-12 05:33N 53°07' E 008°43'0 0.0
2016-Feb-12 04:33N 53°07' E 008°43'0 0.0
2016-Feb-12 03:32N 53°07' E 008°43'0 0.0
2016-Feb-12 02:32N 53°07' E 008°43'0 0.0
2016-Feb-12 01:33N 53°07' E 008°43'0 0.0
2016-Feb-12 00:32N 53°07' E 008°43'0 0.0
2016-Feb-11 23:33N 53°07' E 008°43'0 0.0
2016-Feb-11 22:32N 53°07' E 008°43'0 0.0
2016-Feb-11 21:33N 53°07' E 008°43'0 0.0
2016-Feb-11 20:33N 53°07' E 008°43'0 0.0
2016-Feb-11 19:32N 53°07' E 008°43'0 0.0
2016-Feb-11 18:32N 53°07' E 008°43'0 0.0
2016-Feb-11 17:33N 53°07' E 008°43'0 0.4
2016-Feb-11 16:34N 53°07' E 008°43'6 6.5
2016-Feb-11 15:33N 53°11' E 008°34'8 7.7
2016-Feb-11 14:34N 53°18' E 008°29'9 9.2
2016-Feb-11 13:33N 53°27' E 008°29'5 4.7
2016-Feb-11 12:32N 53°31' E 008°34'0 0.0
2016-Feb-11 11:32N 53°31' E 008°34'0 0.0
2016-Feb-11 10:32N 53°31' E 008°34'2 1.7
2016-Feb-11 09:33N 53°33' E 008°33'9 9.4
2016-Feb-11 08:34N 53°40' E 008°23'9 9.2
2016-Feb-11 07:34N 53°46' E 008°11'8 7.8
2016-Feb-11 06:34N 53°51' E 008°01'8 7.8
2016-Feb-11 05:33N 53°53' E 007°48'9 9.3
2016-Feb-11 04:34N 53°59' E 007°36'9 9.4
2016-Feb-11 03:33N 54°07' E 007°29'9 8.6
2016-Feb-11 02:33N 54°15' E 007°23'8 8.1
2016-Feb-11 01:33N 54°23' E 007°17'8 8.0
2016-Feb-11 00:33N 54°30' E 007°12'8 8.5
2016-Feb-10 23:33N 54°38' E 007°07'237 9.0
2016-Feb-09 21:06N 58°23' E 004°51'5 8.6
2016-Feb-09 20:31N 58°28' E 004°48'9 8.9
2016-Feb-09 19:32N 58°36' E 004°43'10 9.1
2016-Feb-09 18:24N 58°46' E 004°37'  
2016-Feb-05 18:33N 58°47' W 002°38'9 9.5
2016-Feb-05 17:33N 58°43' W 002°54'1211.6
2016-Feb-05 16:33N 58°42' W 003°17'9 9.0
2016-Feb-05 15:33N 58°42' W 003°34'9 8.7
2016-Feb-05 14:33N 58°41' W 003°51'9 8.6
2016-Feb-05 13:33N 58°41' W 004°07'  

Dump ship's entire track history